sensor_id;sensor_type;location;lat;lon;timestamp;temperature;humidity
13606;DHT22;6874;52.084;5.090;2023-08-30T00:00:43;15.00;99.90
13606;DHT22;6874;52.084;5.090;2023-08-30T00:03:10;15.00;99.90
13606;DHT22;6874;52.084;5.090;2023-08-30T00:05:39;15.00;99.90
13606;DHT22;6874;52.084;5.090;2023-08-30T00:08:05;15.00;99.90
13606;DHT22;6874;52.084;5.090;2023-08-30T00:10:31;14.90;99.90
13606;DHT22;6874;52.084;5.090;2023-08-30T00:12:57;14.90;99.90
13606;DHT22;6874;52.084;5.090;2023-08-30T00:15:22;14.90;99.90
13606;DHT22;6874;52.084;5.090;2023-08-30T00:17:48;14.90;99.90
13606;DHT22;6874;52.084;5.090;2023-08-30T00:20:14;14.90;99.90
13606;DHT22;6874;52.084;5.090;2023-08-30T00:22:39;14.90;99.90
13606;DHT22;6874;52.084;5.090;2023-08-30T00:25:05;14.90;99.90
13606;DHT22;6874;52.084;5.090;2023-08-30T00:27:31;14.90;99.90
13606;DHT22;6874;52.084;5.090;2023-08-30T00:29:56;14.90;99.90
13606;DHT22;6874;52.084;5.090;2023-08-30T00:32:22;14.90;99.90
13606;DHT22;6874;52.084;5.090;2023-08-30T00:34:50;14.80;99.90
13606;DHT22;6874;52.084;5.090;2023-08-30T00:37:16;14.90;99.90
13606;DHT22;6874;52.084;5.090;2023-08-30T00:39:43;14.90;99.90
13606;DHT22;6874;52.084;5.090;2023-08-30T00:42:09;14.90;99.90
13606;DHT22;6874;52.084;5.090;2023-08-30T00:44:35;14.90;99.90
13606;DHT22;6874;52.084;5.090;2023-08-30T00:47:02;14.90;99.90
13606;DHT22;6874;52.084;5.090;2023-08-30T00:49:29;14.90;99.90
13606;DHT22;6874;52.084;5.090;2023-08-30T00:52:01;14.90;99.90
13606;DHT22;6874;52.084;5.090;2023-08-30T00:54:27;14.80;99.90
13606;DHT22;6874;52.084;5.090;2023-08-30T00:56:54;14.90;99.90
13606;DHT22;6874;52.084;5.090;2023-08-30T00:59:21;14.90;99.90
13606;DHT22;6874;52.084;5.090;2023-08-30T01:01:47;14.90;99.90
13606;DHT22;6874;52.084;5.090;2023-08-30T01:04:13;14.80;99.90
13606;DHT22;6874;52.084;5.090;2023-08-30T01:06:39;14.90;99.90
13606;DHT22;6874;52.084;5.090;2023-08-30T01:09:05;14.80;99.90
13606;DHT22;6874;52.084;5.090;2023-08-30T01:11:46;14.90;99.90
13606;DHT22;6874;52.084;5.090;2023-08-30T01:14:20;14.90;99.90
13606;DHT22;6874;52.084;5.090;2023-08-30T01:16:48;14.90;99.90
13606;DHT22;6874;52.084;5.090;2023-08-30T01:22:12;14.90;99.90
13606;DHT22;6874;52.084;5.090;2023-08-30T01:24:48;14.80;99.90
13606;DHT22;6874;52.084;5.090;2023-08-30T01:27:16;14.80;99.90
13606;DHT22;6874;52.084;5.090;2023-08-30T01:29:44;14.90;99.90
13606;DHT22;6874;52.084;5.090;2023-08-30T01:32:11;14.80;99.90
13606;DHT22;6874;52.084;5.090;2023-08-30T01:34:39;14.80;99.90
13606;DHT22;6874;52.084;5.090;2023-08-30T01:37:07;14.80;99.90
13606;DHT22;6874;52.084;5.090;2023-08-30T01:39:37;14.80;99.90
13606;DHT22;6874;52.084;5.090;2023-08-30T01:42:04;14.80;99.90
13606;DHT22;6874;52.084;5.090;2023-08-30T01:44:30;14.80;99.90
13606;DHT22;6874;52.084;5.090;2023-08-30T01:46:57;14.80;99.90
13606;DHT22;6874;52.084;5.090;2023-08-30T01:49:24;14.80;99.90
13606;DHT22;6874;52.084;5.090;2023-08-30T01:51:51;14.80;99.90
13606;DHT22;6874;52.084;5.090;2023-08-30T01:54:20;14.80;99.90
13606;DHT22;6874;52.084;5.090;2023-08-30T01:56:46;14.80;99.90
13606;DHT22;6874;52.084;5.090;2023-08-30T01:59:12;14.80;99.90
13606;DHT22;6874;52.084;5.090;2023-08-30T02:01:38;14.80;99.90
13606;DHT22;6874;52.084;5.090;2023-08-30T02:04:04;14.80;99.90
13606;DHT22;6874;52.084;5.090;2023-08-30T02:06:38;14.80;99.90
13606;DHT22;6874;52.084;5.090;2023-08-30T02:11:50;14.80;99.90
13606;DHT22;6874;52.084;5.090;2023-08-30T02:14:18;14.80;99.90
13606;DHT22;6874;52.084;5.090;2023-08-30T02:16:48;14.80;99.90
13606;DHT22;6874;52.084;5.090;2023-08-30T02:19:14;14.80;99.90
13606;DHT22;6874;52.084;5.090;2023-08-30T02:21:46;14.80;99.90
13606;DHT22;6874;52.084;5.090;2023-08-30T02:24:12;14.80;99.90
13606;DHT22;6874;52.084;5.090;2023-08-30T02:26:37;14.80;99.90
13606;DHT22;6874;52.084;5.090;2023-08-30T02:29:03;14.80;99.90
13606;DHT22;6874;52.084;5.090;2023-08-30T02:31:29;14.80;99.90
13606;DHT22;6874;52.084;5.090;2023-08-30T02:33:54;14.70;99.90
13606;DHT22;6874;52.084;5.090;2023-08-30T02:36:20;14.70;99.90
13606;DHT22;6874;52.084;5.090;2023-08-30T02:38:46;14.70;99.90
13606;DHT22;6874;52.084;5.090;2023-08-30T02:41:11;14.70;99.90
13606;DHT22;6874;52.084;5.090;2023-08-30T02:43:37;14.70;99.90
13606;DHT22;6874;52.084;5.090;2023-08-30T02:46:03;14.70;99.90
13606;DHT22;6874;52.084;5.090;2023-08-30T02:48:31;14.70;99.90
13606;DHT22;6874;52.084;5.090;2023-08-30T02:50:56;14.70;99.90
13606;DHT22;6874;52.084;5.090;2023-08-30T02:53:23;14.70;99.90
13606;DHT22;6874;52.084;5.090;2023-08-30T02:55:48;14.70;99.90
13606;DHT22;6874;52.084;5.090;2023-08-30T02:58:14;14.70;99.90
13606;DHT22;6874;52.084;5.090;2023-08-30T03:00:39;14.70;99.90
13606;DHT22;6874;52.084;5.090;2023-08-30T03:03:05;14.70;99.90
13606;DHT22;6874;52.084;5.090;2023-08-30T03:05:30;14.70;99.90
13606;DHT22;6874;52.084;5.090;2023-08-30T03:07:56;14.70;99.90
13606;DHT22;6874;52.084;5.090;2023-08-30T03:10:22;14.70;99.90
13606;DHT22;6874;52.084;5.090;2023-08-30T03:12:48;14.70;99.90
13606;DHT22;6874;52.084;5.090;2023-08-30T03:15:13;14.70;99.90
13606;DHT22;6874;52.084;5.090;2023-08-30T03:17:39;14.60;99.90
13606;DHT22;6874;52.084;5.090;2023-08-30T03:20:05;14.60;99.90
13606;DHT22;6874;52.084;5.090;2023-08-30T03:22:31;14.60;99.90
13606;DHT22;6874;52.084;5.090;2023-08-30T03:24:57;14.60;99.90
13606;DHT22;6874;52.084;5.090;2023-08-30T03:27:24;14.60;99.90
13606;DHT22;6874;52.084;5.090;2023-08-30T03:29:49;14.50;99.90
13606;DHT22;6874;52.084;5.090;2023-08-30T03:32:17;14.50;99.90
13606;DHT22;6874;52.084;5.090;2023-08-30T03:34:45;14.50;99.90
13606;DHT22;6874;52.084;5.090;2023-08-30T03:37:13;14.50;99.90
13606;DHT22;6874;52.084;5.090;2023-08-30T03:39:39;14.50;99.90
13606;DHT22;6874;52.084;5.090;2023-08-30T03:42:05;14.50;99.90
13606;DHT22;6874;52.084;5.090;2023-08-30T03:44:30;14.50;99.90
13606;DHT22;6874;52.084;5.090;2023-08-30T03:46:56;14.50;99.90
13606;DHT22;6874;52.084;5.090;2023-08-30T03:49:22;14.40;99.90
13606;DHT22;6874;52.084;5.090;2023-08-30T03:51:48;14.40;99.90
13606;DHT22;6874;52.084;5.090;2023-08-30T03:54:13;14.40;99.90
13606;DHT22;6874;52.084;5.090;2023-08-30T03:56:45;14.40;99.90
13606;DHT22;6874;52.084;5.090;2023-08-30T03:59:11;14.40;99.90
13606;DHT22;6874;52.084;5.090;2023-08-30T04:01:37;14.40;99.90
13606;DHT22;6874;52.084;5.090;2023-08-30T04:04:03;14.40;99.90
13606;DHT22;6874;52.084;5.090;2023-08-30T04:06:29;14.30;99.90
13606;DHT22;6874;52.084;5.090;2023-08-30T04:08:54;14.30;99.90
13606;DHT22;6874;52.084;5.090;2023-08-30T04:11:20;14.30;99.90
13606;DHT22;6874;52.084;5.090;2023-08-30T04:13:45;14.30;99.90
13606;DHT22;6874;52.084;5.090;2023-08-30T04:16:11;14.30;99.90
13606;DHT22;6874;52.084;5.090;2023-08-30T04:18:37;14.30;99.90
13606;DHT22;6874;52.084;5.090;2023-08-30T04:21:02;14.30;99.90
13606;DHT22;6874;52.084;5.090;2023-08-30T04:23:29;14.20;99.90
13606;DHT22;6874;52.084;5.090;2023-08-30T04:25:55;14.20;99.90
13606;DHT22;6874;52.084;5.090;2023-08-30T04:28:21;14.20;99.90
13606;DHT22;6874;52.084;5.090;2023-08-30T04:30:46;14.20;99.90
13606;DHT22;6874;52.084;5.090;2023-08-30T04:33:12;14.20;99.90
13606;DHT22;6874;52.084;5.090;2023-08-30T04:35:38;14.10;99.90
13606;DHT22;6874;52.084;5.090;2023-08-30T04:38:04;14.20;99.90
13606;DHT22;6874;52.084;5.090;2023-08-30T04:40:30;14.10;99.90
13606;DHT22;6874;52.084;5.090;2023-08-30T04:42:57;14.10;99.90
13606;DHT22;6874;52.084;5.090;2023-08-30T04:45:23;14.10;99.90
13606;DHT22;6874;52.084;5.090;2023-08-30T04:47:48;14.10;99.90
13606;DHT22;6874;52.084;5.090;2023-08-30T04:50:14;14.10;99.90
13606;DHT22;6874;52.084;5.090;2023-08-30T04:52:40;14.10;99.90
13606;DHT22;6874;52.084;5.090;2023-08-30T04:55:06;14.00;99.90
13606;DHT22;6874;52.084;5.090;2023-08-30T04:57:32;14.00;99.90
13606;DHT22;6874;52.084;5.090;2023-08-30T04:59:57;14.00;99.90
13606;DHT22;6874;52.084;5.090;2023-08-30T05:02:23;14.00;99.90
13606;DHT22;6874;52.084;5.090;2023-08-30T05:04:48;14.00;99.90
13606;DHT22;6874;52.084;5.090;2023-08-30T05:07:14;14.00;99.90
13606;DHT22;6874;52.084;5.090;2023-08-30T05:09:39;14.00;99.90
13606;DHT22;6874;52.084;5.090;2023-08-30T05:12:06;13.90;99.90
13606;DHT22;6874;52.084;5.090;2023-08-30T05:14:32;13.90;99.90
13606;DHT22;6874;52.084;5.090;2023-08-30T05:16:57;13.90;99.90
13606;DHT22;6874;52.084;5.090;2023-08-30T05:19:23;13.90;99.90
13606;DHT22;6874;52.084;5.090;2023-08-30T05:21:49;13.90;99.90
13606;DHT22;6874;52.084;5.090;2023-08-30T05:24:20;13.90;99.90
13606;DHT22;6874;52.084;5.090;2023-08-30T05:26:46;13.90;99.90
13606;DHT22;6874;52.084;5.090;2023-08-30T05:29:13;13.90;99.90
13606;DHT22;6874;52.084;5.090;2023-08-30T05:31:39;13.90;99.90
13606;DHT22;6874;52.084;5.090;2023-08-30T05:34:05;13.80;99.90
13606;DHT22;6874;52.084;5.090;2023-08-30T05:36:30;13.90;99.90
13606;DHT22;6874;52.084;5.090;2023-08-30T05:38:56;13.90;99.90
13606;DHT22;6874;52.084;5.090;2023-08-30T05:41:21;13.90;99.90
13606;DHT22;6874;52.084;5.090;2023-08-30T05:43:47;13.90;99.90
13606;DHT22;6874;52.084;5.090;2023-08-30T05:46:13;13.90;99.90
13606;DHT22;6874;52.084;5.090;2023-08-30T05:48:41;13.90;99.90
13606;DHT22;6874;52.084;5.090;2023-08-30T05:51:06;13.90;99.90
13606;DHT22;6874;52.084;5.090;2023-08-30T05:53:32;13.90;99.90
13606;DHT22;6874;52.084;5.090;2023-08-30T05:55:57;13.90;99.90
13606;DHT22;6874;52.084;5.090;2023-08-30T05:58:23;13.90;99.90
13606;DHT22;6874;52.084;5.090;2023-08-30T06:00:49;13.90;99.90
13606;DHT22;6874;52.084;5.090;2023-08-30T06:03:14;13.90;99.90
13606;DHT22;6874;52.084;5.090;2023-08-30T06:05:40;14.00;99.90
13606;DHT22;6874;52.084;5.090;2023-08-30T06:08:05;13.90;99.90
13606;DHT22;6874;52.084;5.090;2023-08-30T06:10:31;14.00;99.90
13606;DHT22;6874;52.084;5.090;2023-08-30T06:12:57;14.00;99.90
13606;DHT22;6874;52.084;5.090;2023-08-30T06:15:22;14.00;99.90
13606;DHT22;6874;52.084;5.090;2023-08-30T06:17:48;14.00;99.90
13606;DHT22;6874;52.084;5.090;2023-08-30T06:20:15;14.00;99.90
13606;DHT22;6874;52.084;5.090;2023-08-30T06:22:40;14.00;99.90
13606;DHT22;6874;52.084;5.090;2023-08-30T06:25:08;14.00;99.90
13606;DHT22;6874;52.084;5.090;2023-08-30T06:27:36;14.00;99.90
13606;DHT22;6874;52.084;5.090;2023-08-30T06:30:01;14.00;99.90
13606;DHT22;6874;52.084;5.090;2023-08-30T06:32:29;14.00;99.90
13606;DHT22;6874;52.084;5.090;2023-08-30T06:34:54;14.00;99.90
13606;DHT22;6874;52.084;5.090;2023-08-30T06:37:20;13.90;99.90
13606;DHT22;6874;52.084;5.090;2023-08-30T06:39:45;13.90;99.90
13606;DHT22;6874;52.084;5.090;2023-08-30T06:42:11;14.00;99.90
13606;DHT22;6874;52.084;5.090;2023-08-30T06:44:36;13.90;99.90
13606;DHT22;6874;52.084;5.090;2023-08-30T06:47:02;14.00;99.90
13606;DHT22;6874;52.084;5.090;2023-08-30T06:49:28;14.00;99.90
13606;DHT22;6874;52.084;5.090;2023-08-30T06:51:54;13.90;99.90
13606;DHT22;6874;52.084;5.090;2023-08-30T06:54:19;14.00;99.90
13606;DHT22;6874;52.084;5.090;2023-08-30T06:56:58;14.00;99.90
13606;DHT22;6874;52.084;5.090;2023-08-30T06:59:24;14.00;99.90
13606;DHT22;6874;52.084;5.090;2023-08-30T07:01:50;13.90;99.90
13606;DHT22;6874;52.084;5.090;2023-08-30T07:04:16;14.00;99.90
13606;DHT22;6874;52.084;5.090;2023-08-30T07:06:41;14.00;99.90
13606;DHT22;6874;52.084;5.090;2023-08-30T07:09:07;14.00;99.90
13606;DHT22;6874;52.084;5.090;2023-08-30T07:11:33;14.00;99.90
13606;DHT22;6874;52.084;5.090;2023-08-30T07:13:59;14.00;99.90
13606;DHT22;6874;52.084;5.090;2023-08-30T07:16:24;14.00;99.90
13606;DHT22;6874;52.084;5.090;2023-08-30T07:18:50;14.00;99.90
13606;DHT22;6874;52.084;5.090;2023-08-30T07:21:16;14.00;99.90
13606;DHT22;6874;52.084;5.090;2023-08-30T07:23:41;14.00;99.90
13606;DHT22;6874;52.084;5.090;2023-08-30T07:26:07;14.00;99.90
13606;DHT22;6874;52.084;5.090;2023-08-30T07:28:32;14.00;99.90
13606;DHT22;6874;52.084;5.090;2023-08-30T07:31:05;14.00;99.90
13606;DHT22;6874;52.084;5.090;2023-08-30T07:33:31;14.00;99.90
13606;DHT22;6874;52.084;5.090;2023-08-30T07:35:56;14.00;99.90
13606;DHT22;6874;52.084;5.090;2023-08-30T07:38:22;14.00;99.90
13606;DHT22;6874;52.084;5.090;2023-08-30T07:40:48;14.00;99.90
13606;DHT22;6874;52.084;5.090;2023-08-30T07:43:13;14.10;99.90
13606;DHT22;6874;52.084;5.090;2023-08-30T07:45:39;14.10;99.90
13606;DHT22;6874;52.084;5.090;2023-08-30T07:48:05;14.10;99.90
13606;DHT22;6874;52.084;5.090;2023-08-30T07:50:30;14.10;99.90
13606;DHT22;6874;52.084;5.090;2023-08-30T07:52:56;14.10;99.90
13606;DHT22;6874;52.084;5.090;2023-08-30T07:55:21;14.10;99.90
13606;DHT22;6874;52.084;5.090;2023-08-30T07:57:47;14.20;99.90
13606;DHT22;6874;52.084;5.090;2023-08-30T08:00:13;14.10;99.90
13606;DHT22;6874;52.084;5.090;2023-08-30T08:02:40;14.10;99.90
13606;DHT22;6874;52.084;5.090;2023-08-30T08:05:06;14.20;99.90
13606;DHT22;6874;52.084;5.090;2023-08-30T08:07:32;14.20;99.90
13606;DHT22;6874;52.084;5.090;2023-08-30T08:09:57;14.20;99.90
13606;DHT22;6874;52.084;5.090;2023-08-30T08:12:23;14.20;99.90
13606;DHT22;6874;52.084;5.090;2023-08-30T08:14:49;14.20;99.90
13606;DHT22;6874;52.084;5.090;2023-08-30T08:17:14;14.20;99.90
13606;DHT22;6874;52.084;5.090;2023-08-30T08:19:40;14.20;99.90
13606;DHT22;6874;52.084;5.090;2023-08-30T08:22:08;14.20;99.90
13606;DHT22;6874;52.084;5.090;2023-08-30T08:24:33;14.20;99.90
13606;DHT22;6874;52.084;5.090;2023-08-30T08:26:59;14.20;99.90
13606;DHT22;6874;52.084;5.090;2023-08-30T08:29:27;14.30;99.90
13606;DHT22;6874;52.084;5.090;2023-08-30T08:31:53;14.30;99.90
13606;DHT22;6874;52.084;5.090;2023-08-30T08:34:19;14.30;99.90
13606;DHT22;6874;52.084;5.090;2023-08-30T08:36:44;14.30;99.90
13606;DHT22;6874;52.084;5.090;2023-08-30T08:39:10;14.30;99.90
13606;DHT22;6874;52.084;5.090;2023-08-30T08:41:40;14.40;99.90
13606;DHT22;6874;52.084;5.090;2023-08-30T08:44:07;14.30;99.90
13606;DHT22;6874;52.084;5.090;2023-08-30T08:46:35;14.30;99.90
13606;DHT22;6874;52.084;5.090;2023-08-30T08:49:08;14.30;99.90
13606;DHT22;6874;52.084;5.090;2023-08-30T08:51:36;14.30;99.90
13606;DHT22;6874;52.084;5.090;2023-08-30T08:54:03;14.40;99.90
13606;DHT22;6874;52.084;5.090;2023-08-30T08:56:30;14.40;99.90
13606;DHT22;6874;52.084;5.090;2023-08-30T08:58:56;14.40;99.90
13606;DHT22;6874;52.084;5.090;2023-08-30T09:01:23;14.40;99.90
13606;DHT22;6874;52.084;5.090;2023-08-30T09:03:50;14.40;99.90
13606;DHT22;6874;52.084;5.090;2023-08-30T09:06:16;14.50;99.90
13606;DHT22;6874;52.084;5.090;2023-08-30T09:08:42;14.40;99.90
13606;DHT22;6874;52.084;5.090;2023-08-30T09:11:08;14.50;99.90
13606;DHT22;6874;52.084;5.090;2023-08-30T09:13:34;14.50;99.90
13606;DHT22;6874;52.084;5.090;2023-08-30T09:15:59;14.50;99.90
13606;DHT22;6874;52.084;5.090;2023-08-30T09:18:25;14.50;99.90
13606;DHT22;6874;52.084;5.090;2023-08-30T09:23:33;14.60;99.90
13606;DHT22;6874;52.084;5.090;2023-08-30T09:25:59;14.60;99.90
13606;DHT22;6874;52.084;5.090;2023-08-30T09:28:25;14.60;99.90
13606;DHT22;6874;52.084;5.090;2023-08-30T09:30:52;14.60;99.90
13606;DHT22;6874;52.084;5.090;2023-08-30T09:33:37;14.70;99.90
13606;DHT22;6874;52.084;5.090;2023-08-30T09:36:09;14.70;99.90
13606;DHT22;6874;52.084;5.090;2023-08-30T09:38:36;14.80;99.90
13606;DHT22;6874;52.084;5.090;2023-08-30T09:41:05;14.80;99.90
13606;DHT22;6874;52.084;5.090;2023-08-30T09:43:34;14.90;99.90
13606;DHT22;6874;52.084;5.090;2023-08-30T09:46:04;14.90;99.90
13606;DHT22;6874;52.084;5.090;2023-08-30T09:48:31;14.90;99.90
13606;DHT22;6874;52.084;5.090;2023-08-30T09:50:58;15.00;99.90
13606;DHT22;6874;52.084;5.090;2023-08-30T09:53:26;15.10;99.90
13606;DHT22;6874;52.084;5.090;2023-08-30T09:55:54;15.20;99.90
13606;DHT22;6874;52.084;5.090;2023-08-30T09:58:21;15.20;99.90
13606;DHT22;6874;52.084;5.090;2023-08-30T10:00:48;15.30;99.90
13606;DHT22;6874;52.084;5.090;2023-08-30T10:03:15;15.30;99.90
13606;DHT22;6874;52.084;5.090;2023-08-30T10:05:44;15.40;99.90
13606;DHT22;6874;52.084;5.090;2023-08-30T10:08:10;15.50;99.90
13606;DHT22;6874;52.084;5.090;2023-08-30T10:10:38;15.60;99.90
13606;DHT22;6874;52.084;5.090;2023-08-30T10:13:05;15.70;99.90
13606;DHT22;6874;52.084;5.090;2023-08-30T10:15:33;15.80;99.90
13606;DHT22;6874;52.084;5.090;2023-08-30T10:18:01;15.90;99.90
13606;DHT22;6874;52.084;5.090;2023-08-30T10:20:28;16.00;99.90
13606;DHT22;6874;52.084;5.090;2023-08-30T10:22:55;16.10;99.90
13606;DHT22;6874;52.084;5.090;2023-08-30T10:25:26;16.20;99.90
13606;DHT22;6874;52.084;5.090;2023-08-30T10:27:52;16.40;99.90
13606;DHT22;6874;52.084;5.090;2023-08-30T10:30:20;16.50;99.90
13606;DHT22;6874;52.084;5.090;2023-08-30T10:32:46;16.60;99.90
13606;DHT22;6874;52.084;5.090;2023-08-30T10:35:13;16.80;99.90
13606;DHT22;6874;52.084;5.090;2023-08-30T10:37:39;17.00;99.90
13606;DHT22;6874;52.084;5.090;2023-08-30T10:40:06;17.20;99.90
13606;DHT22;6874;52.084;5.090;2023-08-30T10:42:32;17.20;99.90
13606;DHT22;6874;52.084;5.090;2023-08-30T10:44:59;17.30;99.90
13606;DHT22;6874;52.084;5.090;2023-08-30T10:47:25;17.40;99.90
13606;DHT22;6874;52.084;5.090;2023-08-30T10:49:59;17.40;99.90
13606;DHT22;6874;52.084;5.090;2023-08-30T10:52:26;17.40;99.90
13606;DHT22;6874;52.084;5.090;2023-08-30T10:54:52;17.40;99.90
13606;DHT22;6874;52.084;5.090;2023-08-30T10:57:24;17.40;99.90
13606;DHT22;6874;52.084;5.090;2023-08-30T11:00:11;17.50;99.90
13606;DHT22;6874;52.084;5.090;2023-08-30T11:02:49;17.40;99.90
13606;DHT22;6874;52.084;5.090;2023-08-30T11:05:21;17.40;99.90
13606;DHT22;6874;52.084;5.090;2023-08-30T11:07:47;17.40;99.90
13606;DHT22;6874;52.084;5.090;2023-08-30T11:10:15;17.40;99.90
13606;DHT22;6874;52.084;5.090;2023-08-30T11:12:41;17.40;99.90
13606;DHT22;6874;52.084;5.090;2023-08-30T11:15:09;17.40;99.90
13606;DHT22;6874;52.084;5.090;2023-08-30T11:17:34;17.30;99.90
13606;DHT22;6874;52.084;5.090;2023-08-30T11:20:08;17.30;99.90
13606;DHT22;6874;52.084;5.090;2023-08-30T11:22:38;17.30;99.90
13606;DHT22;6874;52.084;5.090;2023-08-30T11:25:05;17.30;99.90
13606;DHT22;6874;52.084;5.090;2023-08-30T11:27:31;17.30;99.90
13606;DHT22;6874;52.084;5.090;2023-08-30T11:30:02;17.30;99.90
13606;DHT22;6874;52.084;5.090;2023-08-30T11:32:34;17.30;99.90
13606;DHT22;6874;52.084;5.090;2023-08-30T11:35:00;17.30;99.90
13606;DHT22;6874;52.084;5.090;2023-08-30T11:37:29;17.30;99.90
13606;DHT22;6874;52.084;5.090;2023-08-30T11:39:55;17.30;99.90
13606;DHT22;6874;52.084;5.090;2023-08-30T11:42:21;17.30;99.90
13606;DHT22;6874;52.084;5.090;2023-08-30T11:44:47;17.30;99.90
13606;DHT22;6874;52.084;5.090;2023-08-30T11:47:24;17.30;99.90
13606;DHT22;6874;52.084;5.090;2023-08-30T11:49:51;17.40;99.90
13606;DHT22;6874;52.084;5.090;2023-08-30T11:52:18;17.40;99.90
13606;DHT22;6874;52.084;5.090;2023-08-30T11:54:50;17.50;99.90
13606;DHT22;6874;52.084;5.090;2023-08-30T11:57:16;17.50;99.90
13606;DHT22;6874;52.084;5.090;2023-08-30T11:59:41;17.50;99.90
13606;DHT22;6874;52.084;5.090;2023-08-30T12:02:07;17.60;99.90
13606;DHT22;6874;52.084;5.090;2023-08-30T12:04:45;17.60;99.90
13606;DHT22;6874;52.084;5.090;2023-08-30T12:07:21;17.70;99.90
13606;DHT22;6874;52.084;5.090;2023-08-30T12:09:48;17.70;99.90
13606;DHT22;6874;52.084;5.090;2023-08-30T12:12:13;17.70;99.90
13606;DHT22;6874;52.084;5.090;2023-08-30T12:14:39;17.80;99.90
13606;DHT22;6874;52.084;5.090;2023-08-30T12:17:05;18.00;99.90
13606;DHT22;6874;52.084;5.090;2023-08-30T12:19:34;17.90;99.90
13606;DHT22;6874;52.084;5.090;2023-08-30T12:22:04;18.00;99.90
13606;DHT22;6874;52.084;5.090;2023-08-30T12:24:43;18.00;99.90
13606;DHT22;6874;52.084;5.090;2023-08-30T12:27:09;18.10;99.90
13606;DHT22;6874;52.084;5.090;2023-08-30T12:29:35;18.10;99.90
13606;DHT22;6874;52.084;5.090;2023-08-30T12:32:00;18.20;99.90
13606;DHT22;6874;52.084;5.090;2023-08-30T12:34:26;18.20;99.90
13606;DHT22;6874;52.084;5.090;2023-08-30T12:36:51;18.20;99.90
13606;DHT22;6874;52.084;5.090;2023-08-30T12:39:17;18.30;99.90
13606;DHT22;6874;52.084;5.090;2023-08-30T12:41:43;18.30;99.90
13606;DHT22;6874;52.084;5.090;2023-08-30T12:44:09;18.40;99.90
13606;DHT22;6874;52.084;5.090;2023-08-30T12:46:34;18.40;99.90
13606;DHT22;6874;52.084;5.090;2023-08-30T12:49:00;18.50;99.90
13606;DHT22;6874;52.084;5.090;2023-08-30T12:51:26;18.50;99.90
13606;DHT22;6874;52.084;5.090;2023-08-30T12:53:51;18.70;99.90
13606;DHT22;6874;52.084;5.090;2023-08-30T12:56:17;18.70;99.90
13606;DHT22;6874;52.084;5.090;2023-08-30T12:58:42;18.70;99.90
13606;DHT22;6874;52.084;5.090;2023-08-30T13:01:08;18.70;99.90
13606;DHT22;6874;52.084;5.090;2023-08-30T13:03:33;18.80;99.90
13606;DHT22;6874;52.084;5.090;2023-08-30T13:05:59;18.80;99.90
13606;DHT22;6874;52.084;5.090;2023-08-30T13:08:25;18.80;99.90
13606;DHT22;6874;52.084;5.090;2023-08-30T13:10:50;18.80;99.90
13606;DHT22;6874;52.084;5.090;2023-08-30T13:13:16;18.80;99.90
13606;DHT22;6874;52.084;5.090;2023-08-30T13:15:42;18.80;99.90
13606;DHT22;6874;52.084;5.090;2023-08-30T13:18:08;18.80;99.90
13606;DHT22;6874;52.084;5.090;2023-08-30T13:20:37;18.80;99.90
13606;DHT22;6874;52.084;5.090;2023-08-30T13:23:03;18.80;99.90
13606;DHT22;6874;52.084;5.090;2023-08-30T13:25:29;18.80;99.90
13606;DHT22;6874;52.084;5.090;2023-08-30T13:27:54;18.80;99.90
13606;DHT22;6874;52.084;5.090;2023-08-30T13:30:20;18.90;99.90
13606;DHT22;6874;52.084;5.090;2023-08-30T13:32:45;18.90;99.90
13606;DHT22;6874;52.084;5.090;2023-08-30T13:35:11;18.90;99.90
13606;DHT22;6874;52.084;5.090;2023-08-30T13:37:36;19.00;99.90
13606;DHT22;6874;52.084;5.090;2023-08-30T13:40:02;19.00;99.90
13606;DHT22;6874;52.084;5.090;2023-08-30T13:42:32;18.90;99.90
13606;DHT22;6874;52.084;5.090;2023-08-30T13:44:57;18.90;99.90
13606;DHT22;6874;52.084;5.090;2023-08-30T13:47:23;18.90;99.90
13606;DHT22;6874;52.084;5.090;2023-08-30T13:49:49;18.90;99.90
13606;DHT22;6874;52.084;5.090;2023-08-30T13:52:14;18.80;99.90
13606;DHT22;6874;52.084;5.090;2023-08-30T13:54:41;18.80;99.90
13606;DHT22;6874;52.084;5.090;2023-08-30T13:57:06;18.70;99.90
13606;DHT22;6874;52.084;5.090;2023-08-30T13:59:32;18.70;99.90
13606;DHT22;6874;52.084;5.090;2023-08-30T14:01:58;18.60;99.90
13606;DHT22;6874;52.084;5.090;2023-08-30T14:04:24;18.60;99.90
13606;DHT22;6874;52.084;5.090;2023-08-30T14:06:51;18.60;99.90
13606;DHT22;6874;52.084;5.090;2023-08-30T14:09:16;18.60;99.90
13606;DHT22;6874;52.084;5.090;2023-08-30T14:11:42;18.60;99.90
13606;DHT22;6874;52.084;5.090;2023-08-30T14:14:07;18.50;99.90
13606;DHT22;6874;52.084;5.090;2023-08-30T14:16:33;18.60;99.90
13606;DHT22;6874;52.084;5.090;2023-08-30T14:18:59;18.60;99.90
13606;DHT22;6874;52.084;5.090;2023-08-30T14:21:26;18.50;99.90
13606;DHT22;6874;52.084;5.090;2023-08-30T14:23:52;18.60;99.90
13606;DHT22;6874;52.084;5.090;2023-08-30T14:26:18;18.60;99.90
13606;DHT22;6874;52.084;5.090;2023-08-30T14:28:44;18.60;99.90
13606;DHT22;6874;52.084;5.090;2023-08-30T14:31:10;18.70;99.90
13606;DHT22;6874;52.084;5.090;2023-08-30T14:33:36;18.70;99.90
13606;DHT22;6874;52.084;5.090;2023-08-30T14:36:02;18.70;99.90
13606;DHT22;6874;52.084;5.090;2023-08-30T14:38:29;18.70;99.90
13606;DHT22;6874;52.084;5.090;2023-08-30T14:41:00;18.70;99.90
13606;DHT22;6874;52.084;5.090;2023-08-30T14:43:26;18.70;99.90
13606;DHT22;6874;52.084;5.090;2023-08-30T14:46:02;18.70;99.90
13606;DHT22;6874;52.084;5.090;2023-08-30T14:48:28;18.70;99.90
13606;DHT22;6874;52.084;5.090;2023-08-30T14:50:54;18.60;99.90
13606;DHT22;6874;52.084;5.090;2023-08-30T14:53:20;18.70;99.90
13606;DHT22;6874;52.084;5.090;2023-08-30T14:55:45;18.60;99.90
13606;DHT22;6874;52.084;5.090;2023-08-30T14:58:12;18.60;99.90
13606;DHT22;6874;52.084;5.090;2023-08-30T15:00:40;18.60;99.90
13606;DHT22;6874;52.084;5.090;2023-08-30T15:03:06;18.60;99.90
13606;DHT22;6874;52.084;5.090;2023-08-30T15:05:35;18.60;99.90
13606;DHT22;6874;52.084;5.090;2023-08-30T15:08:00;18.70;99.90
13606;DHT22;6874;52.084;5.090;2023-08-30T15:10:26;18.60;99.90
13606;DHT22;6874;52.084;5.090;2023-08-30T15:12:51;18.60;99.90
13606;DHT22;6874;52.084;5.090;2023-08-30T15:15:17;18.60;99.90
13606;DHT22;6874;52.084;5.090;2023-08-30T15:17:44;18.60;99.90
13606;DHT22;6874;52.084;5.090;2023-08-30T15:20:10;18.60;99.90
13606;DHT22;6874;52.084;5.090;2023-08-30T15:22:35;18.50;99.90
13606;DHT22;6874;52.084;5.090;2023-08-30T15:25:01;18.60;99.90
13606;DHT22;6874;52.084;5.090;2023-08-30T15:27:28;18.50;99.90
13606;DHT22;6874;52.084;5.090;2023-08-30T15:29:54;18.50;99.90
13606;DHT22;6874;52.084;5.090;2023-08-30T15:32:21;18.50;99.90
13606;DHT22;6874;52.084;5.090;2023-08-30T15:34:48;18.50;99.90
13606;DHT22;6874;52.084;5.090;2023-08-30T15:37:14;18.50;99.90
13606;DHT22;6874;52.084;5.090;2023-08-30T15:39:40;18.50;99.90
13606;DHT22;6874;52.084;5.090;2023-08-30T15:42:06;18.40;99.90
13606;DHT22;6874;52.084;5.090;2023-08-30T15:44:31;18.50;99.90
13606;DHT22;6874;52.084;5.090;2023-08-30T15:46:57;18.40;99.90
13606;DHT22;6874;52.084;5.090;2023-08-30T15:49:22;18.50;99.90